sensor_id;sensor_type;location;lat;lon;timestamp;P1;durP1;ratioP1;P2;durP2;ratioP2
6566;SDS011;3317;43.994;22.878;2023-03-14T00:00:06;19.50;;;14.03;;
6566;SDS011;3317;43.994;22.878;2023-03-14T00:02:35;15.90;;;11.33;;
6566;SDS011;3317;43.994;22.878;2023-03-14T00:05:02;16.97;;;11.00;;
6566;SDS011;3317;43.994;22.878;2023-03-14T00:07:32;18.10;;;12.13;;
6566;SDS011;3317;43.994;22.878;2023-03-14T00:10:00;12.33;;;8.17;;
6566;SDS011;3317;43.994;22.878;2023-03-14T00:12:29;7.07;;;4.67;;
6566;SDS011;3317;43.994;22.878;2023-03-14T00:14:57;9.33;;;6.60;;
6566;SDS011;3317;43.994;22.878;2023-03-14T00:17:26;22.03;;;13.33;;
6566;SDS011;3317;43.994;22.878;2023-03-14T00:19:53;24.43;;;13.10;;
6566;SDS011;3317;43.994;22.878;2023-03-14T00:22:20;19.37;;;12.70;;
6566;SDS011;3317;43.994;22.878;2023-03-14T00:24:47;20.63;;;13.03;;
6566;SDS011;3317;43.994;22.878;2023-03-14T00:27:14;23.30;;;15.33;;
6566;SDS011;3317;43.994;22.878;2023-03-14T00:29:42;24.77;;;15.83;;
6566;SDS011;3317;43.994;22.878;2023-03-14T00:32:09;23.47;;;15.40;;
6566;SDS011;3317;43.994;22.878;2023-03-14T00:34:38;20.80;;;13.73;;
6566;SDS011;3317;43.994;22.878;2023-03-14T00:37:05;20.60;;;12.57;;
6566;SDS011;3317;43.994;22.878;2023-03-14T00:39:33;14.13;;;10.47;;
6566;SDS011;3317;43.994;22.878;2023-03-14T00:42:00;17.30;;;10.40;;
6566;SDS011;3317;43.994;22.878;2023-03-14T00:44:27;16.57;;;10.63;;
6566;SDS011;3317;43.994;22.878;2023-03-14T00:46:54;13.57;;;10.03;;
6566;SDS011;3317;43.994;22.878;2023-03-14T00:49:21;13.53;;;9.07;;
6566;SDS011;3317;43.994;22.878;2023-03-14T00:51:49;12.80;;;9.60;;
6566;SDS011;3317;43.994;22.878;2023-03-14T00:54:16;15.17;;;10.83;;
6566;SDS011;3317;43.994;22.878;2023-03-14T00:56:43;13.67;;;10.00;;
6566;SDS011;3317;43.994;22.878;2023-03-14T00:59:10;14.50;;;11.00;;
6566;SDS011;3317;43.994;22.878;2023-03-14T01:01:38;16.10;;;10.80;;
6566;SDS011;3317;43.994;22.878;2023-03-14T01:04:05;16.50;;;11.00;;
6566;SDS011;3317;43.994;22.878;2023-03-14T01:06:32;17.53;;;10.80;;
6566;SDS011;3317;43.994;22.878;2023-03-14T01:09:01;18.00;;;12.33;;
6566;SDS011;3317;43.994;22.878;2023-03-14T01:11:29;18.37;;;12.33;;
6566;SDS011;3317;43.994;22.878;2023-03-14T01:13:57;16.53;;;11.60;;
6566;SDS011;3317;43.994;22.878;2023-03-14T01:16:25;21.67;;;12.37;;
6566;SDS011;3317;43.994;22.878;2023-03-14T01:18:54;17.40;;;11.43;;
6566;SDS011;3317;43.994;22.878;2023-03-14T01:21:21;16.33;;;11.93;;
6566;SDS011;3317;43.994;22.878;2023-03-14T01:23:49;15.43;;;11.27;;
6566;SDS011;3317;43.994;22.878;2023-03-14T01:26:19;13.87;;;9.63;;
6566;SDS011;3317;43.994;22.878;2023-03-14T01:28:48;15.93;;;11.37;;
6566;SDS011;3317;43.994;22.878;2023-03-14T01:31:16;12.07;;;9.10;;
6566;SDS011;3317;43.994;22.878;2023-03-14T01:33:44;13.60;;;9.80;;
6566;SDS011;3317;43.994;22.878;2023-03-14T01:36:11;17.00;;;10.60;;
6566;SDS011;3317;43.994;22.878;2023-03-14T01:38:39;17.70;;;10.83;;
6566;SDS011;3317;43.994;22.878;2023-03-14T01:41:07;14.97;;;9.50;;
6566;SDS011;3317;43.994;22.878;2023-03-14T01:43:39;13.17;;;9.40;;
6566;SDS011;3317;43.994;22.878;2023-03-14T01:49:13;13.37;;;9.43;;
6566;SDS011;3317;43.994;22.878;2023-03-14T01:51:47;11.90;;;8.90;;
6566;SDS011;3317;43.994;22.878;2023-03-14T01:54:19;12.33;;;9.13;;
6566;SDS011;3317;43.994;22.878;2023-03-14T01:56:51;13.50;;;9.50;;
6566;SDS011;3317;43.994;22.878;2023-03-14T01:59:24;12.13;;;9.27;;
6566;SDS011;3317;43.994;22.878;2023-03-14T02:01:52;13.67;;;9.27;;
6566;SDS011;3317;43.994;22.878;2023-03-14T02:04:21;13.33;;;9.50;;
6566;SDS011;3317;43.994;22.878;2023-03-14T02:06:51;11.17;;;8.10;;
6566;SDS011;3317;43.994;22.878;2023-03-14T02:09:22;11.33;;;7.80;;
6566;SDS011;3317;43.994;22.878;2023-03-14T02:11:49;10.70;;;7.67;;
6566;SDS011;3317;43.994;22.878;2023-03-14T02:14:21;10.13;;;6.70;;
6566;SDS011;3317;43.994;22.878;2023-03-14T02:16:56;11.27;;;8.30;;
6566;SDS011;3317;43.994;22.878;2023-03-14T02:19:26;12.07;;;8.30;;
6566;SDS011;3317;43.994;22.878;2023-03-14T02:22:04;9.97;;;7.03;;
6566;SDS011;3317;43.994;22.878;2023-03-14T02:24:38;12.23;;;8.80;;
6566;SDS011;3317;43.994;22.878;2023-03-14T02:30:00;11.97;;;8.80;;
6566;SDS011;3317;43.994;22.878;2023-03-14T02:32:30;13.53;;;9.17;;
6566;SDS011;3317;43.994;22.878;2023-03-14T02:35:00;13.00;;;9.67;;
6566;SDS011;3317;43.994;22.878;2023-03-14T02:37:35;14.37;;;10.80;;
6566;SDS011;3317;43.994;22.878;2023-03-14T02:40:07;17.63;;;10.20;;
6566;SDS011;3317;43.994;22.878;2023-03-14T02:42:36;17.40;;;10.43;;
6566;SDS011;3317;43.994;22.878;2023-03-14T02:47:59;10.80;;;7.83;;
6566;SDS011;3317;43.994;22.878;2023-03-14T02:50:31;14.17;;;9.07;;
6566;SDS011;3317;43.994;22.878;2023-03-14T02:53:00;13.03;;;9.43;;
6566;SDS011;3317;43.994;22.878;2023-03-14T02:55:26;14.70;;;9.10;;
6566;SDS011;3317;43.994;22.878;2023-03-14T02:57:55;10.67;;;8.03;;
6566;SDS011;3317;43.994;22.878;2023-03-14T03:00:22;15.00;;;10.40;;
6566;SDS011;3317;43.994;22.878;2023-03-14T03:02:49;16.67;;;11.27;;
6566;SDS011;3317;43.994;22.878;2023-03-14T03:05:16;17.23;;;11.27;;
6566;SDS011;3317;43.994;22.878;2023-03-14T03:07:43;26.23;;;15.40;;
6566;SDS011;3317;43.994;22.878;2023-03-14T03:10:10;28.73;;;19.70;;
6566;SDS011;3317;43.994;22.878;2023-03-14T03:12:37;20.10;;;13.80;;
6566;SDS011;3317;43.994;22.878;2023-03-14T03:15:06;19.60;;;13.30;;
6566;SDS011;3317;43.994;22.878;2023-03-14T03:17:33;20.13;;;14.23;;
6566;SDS011;3317;43.994;22.878;2023-03-14T03:20:00;21.77;;;15.43;;
6566;SDS011;3317;43.994;22.878;2023-03-14T03:22:29;23.13;;;16.73;;
6566;SDS011;3317;43.994;22.878;2023-03-14T03:24:57;23.73;;;16.77;;
6566;SDS011;3317;43.994;22.878;2023-03-14T03:27:24;24.10;;;16.70;;
6566;SDS011;3317;43.994;22.878;2023-03-14T03:29:51;21.03;;;14.23;;
6566;SDS011;3317;43.994;22.878;2023-03-14T03:32:19;20.00;;;14.27;;
6566;SDS011;3317;43.994;22.878;2023-03-14T03:34:46;18.90;;;13.70;;
6566;SDS011;3317;43.994;22.878;2023-03-14T03:37:12;15.93;;;13.20;;
6566;SDS011;3317;43.994;22.878;2023-03-14T03:39:39;15.20;;;12.43;;
6566;SDS011;3317;43.994;22.878;2023-03-14T03:42:06;17.53;;;11.47;;
6566;SDS011;3317;43.994;22.878;2023-03-14T03:44:33;17.80;;;12.13;;
6566;SDS011;3317;43.994;22.878;2023-03-14T03:47:00;16.40;;;12.70;;
6566;SDS011;3317;43.994;22.878;2023-03-14T03:49:29;18.63;;;14.20;;
6566;SDS011;3317;43.994;22.878;2023-03-14T03:51:57;19.57;;;15.17;;
6566;SDS011;3317;43.994;22.878;2023-03-14T03:54:24;15.23;;;12.13;;
6566;SDS011;3317;43.994;22.878;2023-03-14T03:56:51;23.00;;;11.60;;
6566;SDS011;3317;43.994;22.878;2023-03-14T03:59:18;20.67;;;15.20;;
6566;SDS011;3317;43.994;22.878;2023-03-14T04:01:45;18.33;;;13.10;;
6566;SDS011;3317;43.994;22.878;2023-03-14T04:04:13;19.63;;;13.10;;
6566;SDS011;3317;43.994;22.878;2023-03-14T04:06:41;17.53;;;12.17;;
6566;SDS011;3317;43.994;22.878;2023-03-14T04:09:08;22.50;;;14.60;;
6566;SDS011;3317;43.994;22.878;2023-03-14T04:11:35;18.50;;;13.40;;
6566;SDS011;3317;43.994;22.878;2023-03-14T04:14:02;18.23;;;11.90;;
6566;SDS011;3317;43.994;22.878;2023-03-14T04:16:30;22.80;;;14.13;;
6566;SDS011;3317;43.994;22.878;2023-03-14T04:18:57;30.73;;;13.13;;
6566;SDS011;3317;43.994;22.878;2023-03-14T04:21:24;24.97;;;14.90;;
6566;SDS011;3317;43.994;22.878;2023-03-14T04:23:52;19.60;;;11.80;;
6566;SDS011;3317;43.994;22.878;2023-03-14T04:26:20;16.00;;;11.53;;
6566;SDS011;3317;43.994;22.878;2023-03-14T04:28:47;15.53;;;11.90;;
6566;SDS011;3317;43.994;22.878;2023-03-14T04:31:14;15.50;;;10.60;;
6566;SDS011;3317;43.994;22.878;2023-03-14T04:33:43;15.90;;;11.10;;
6566;SDS011;3317;43.994;22.878;2023-03-14T04:36:10;16.80;;;11.23;;
6566;SDS011;3317;43.994;22.878;2023-03-14T04:38:38;24.23;;;12.87;;
6566;SDS011;3317;43.994;22.878;2023-03-14T04:41:06;20.00;;;12.97;;
6566;SDS011;3317;43.994;22.878;2023-03-14T04:43:33;20.40;;;12.27;;
6566;SDS011;3317;43.994;22.878;2023-03-14T04:46:02;18.00;;;13.00;;
6566;SDS011;3317;43.994;22.878;2023-03-14T04:48:29;18.77;;;12.13;;
6566;SDS011;3317;43.994;22.878;2023-03-14T04:50:56;34.77;;;15.90;;
6566;SDS011;3317;43.994;22.878;2023-03-14T04:53:23;25.13;;;15.73;;
6566;SDS011;3317;43.994;22.878;2023-03-14T04:55:50;19.60;;;14.37;;
6566;SDS011;3317;43.994;22.878;2023-03-14T04:58:19;31.10;;;21.50;;
6566;SDS011;3317;43.994;22.878;2023-03-14T05:00:47;27.33;;;17.90;;
6566;SDS011;3317;43.994;22.878;2023-03-14T05:03:14;23.03;;;14.30;;
6566;SDS011;3317;43.994;22.878;2023-03-14T05:05:41;16.90;;;11.77;;
6566;SDS011;3317;43.994;22.878;2023-03-14T05:08:08;24.07;;;14.43;;
6566;SDS011;3317;43.994;22.878;2023-03-14T05:10:36;22.27;;;14.17;;
6566;SDS011;3317;43.994;22.878;2023-03-14T05:13:03;17.03;;;9.20;;
6566;SDS011;3317;43.994;22.878;2023-03-14T05:15:31;18.73;;;12.70;;
6566;SDS011;3317;43.994;22.878;2023-03-14T05:17:58;13.00;;;8.60;;
6566;SDS011;3317;43.994;22.878;2023-03-14T05:20:25;17.93;;;12.07;;
6566;SDS011;3317;43.994;22.878;2023-03-14T05:22:52;25.40;;;14.53;;
6566;SDS011;3317;43.994;22.878;2023-03-14T05:25:21;20.00;;;14.27;;
6566;SDS011;3317;43.994;22.878;2023-03-14T05:27:47;29.27;;;22.03;;
6566;SDS011;3317;43.994;22.878;2023-03-14T05:30:14;23.37;;;15.27;;
6566;SDS011;3317;43.994;22.878;2023-03-14T05:32:43;24.03;;;14.30;;
6566;SDS011;3317;43.994;22.878;2023-03-14T05:35:10;33.67;;;15.30;;
6566;SDS011;3317;43.994;22.878;2023-03-14T05:37:37;24.83;;;14.73;;
6566;SDS011;3317;43.994;22.878;2023-03-14T05:40:04;29.07;;;15.77;;
6566;SDS011;3317;43.994;22.878;2023-03-14T05:42:33;25.00;;;15.60;;
6566;SDS011;3317;43.994;22.878;2023-03-14T05:45:00;36.97;;;19.60;;
6566;SDS011;3317;43.994;22.878;2023-03-14T05:47:27;21.70;;;14.17;;
6566;SDS011;3317;43.994;22.878;2023-03-14T05:49:56;28.53;;;17.57;;
6566;SDS011;3317;43.994;22.878;2023-03-14T05:52:23;29.73;;;15.57;;
6566;SDS011;3317;43.994;22.878;2023-03-14T05:54:50;27.47;;;16.50;;
6566;SDS011;3317;43.994;22.878;2023-03-14T05:57:17;27.30;;;16.13;;
6566;SDS011;3317;43.994;22.878;2023-03-14T05:59:44;40.80;;;19.70;;
6566;SDS011;3317;43.994;22.878;2023-03-14T06:02:11;30.67;;;17.77;;
6566;SDS011;3317;43.994;22.878;2023-03-14T06:04:38;26.33;;;15.93;;
6566;SDS011;3317;43.994;22.878;2023-03-14T06:07:06;28.00;;;15.20;;
6566;SDS011;3317;43.994;22.878;2023-03-14T06:09:33;27.83;;;14.73;;
6566;SDS011;3317;43.994;22.878;2023-03-14T06:12:00;50.77;;;27.57;;
6566;SDS011;3317;43.994;22.878;2023-03-14T06:14:27;36.60;;;21.77;;
6566;SDS011;3317;43.994;22.878;2023-03-14T06:16:54;26.37;;;16.17;;
6566;SDS011;3317;43.994;22.878;2023-03-14T06:19:21;30.07;;;21.60;;
6566;SDS011;3317;43.994;22.878;2023-03-14T06:21:48;26.20;;;17.17;;
6566;SDS011;3317;43.994;22.878;2023-03-14T06:24:17;28.00;;;16.10;;
6566;SDS011;3317;43.994;22.878;2023-03-14T06:26:44;25.97;;;15.50;;
6566;SDS011;3317;43.994;22.878;2023-03-14T06:29:11;27.07;;;16.67;;
6566;SDS011;3317;43.994;22.878;2023-03-14T06:31:38;25.47;;;14.23;;
6566;SDS011;3317;43.994;22.878;2023-03-14T06:34:05;20.93;;;14.30;;
6566;SDS011;3317;43.994;22.878;2023-03-14T06:36:32;29.40;;;16.63;;
6566;SDS011;3317;43.994;22.878;2023-03-14T06:38:59;24.50;;;15.20;;
6566;SDS011;3317;43.994;22.878;2023-03-14T06:41:27;24.77;;;14.90;;
6566;SDS011;3317;43.994;22.878;2023-03-14T06:43:54;26.37;;;15.87;;
6566;SDS011;3317;43.994;22.878;2023-03-14T06:46:21;29.10;;;15.47;;
6566;SDS011;3317;43.994;22.878;2023-03-14T06:48:48;22.63;;;15.60;;
6566;SDS011;3317;43.994;22.878;2023-03-14T06:51:15;22.40;;;14.80;;
6566;SDS011;3317;43.994;22.878;2023-03-14T06:53:42;25.80;;;16.47;;
6566;SDS011;3317;43.994;22.878;2023-03-14T06:56:09;25.23;;;14.83;;
6566;SDS011;3317;43.994;22.878;2023-03-14T06:58:37;21.60;;;14.33;;
6566;SDS011;3317;43.994;22.878;2023-03-14T07:01:04;25.57;;;14.53;;
6566;SDS011;3317;43.994;22.878;2023-03-14T07:03:32;21.83;;;13.70;;
6566;SDS011;3317;43.994;22.878;2023-03-14T07:05:59;24.87;;;14.17;;
6566;SDS011;3317;43.994;22.878;2023-03-14T07:08:26;26.13;;;14.47;;
6566;SDS011;3317;43.994;22.878;2023-03-14T07:10:52;23.53;;;13.73;;
6566;SDS011;3317;43.994;22.878;2023-03-14T07:13:22;24.53;;;14.43;;
6566;SDS011;3317;43.994;22.878;2023-03-14T07:15:51;20.67;;;13.70;;
6566;SDS011;3317;43.994;22.878;2023-03-14T07:18:18;19.03;;;12.23;;
6566;SDS011;3317;43.994;22.878;2023-03-14T07:20:45;17.97;;;12.50;;
6566;SDS011;3317;43.994;22.878;2023-03-14T07:23:12;21.57;;;13.10;;
6566;SDS011;3317;43.994;22.878;2023-03-14T07:25:38;16.53;;;13.00;;
6566;SDS011;3317;43.994;22.878;2023-03-14T07:28:06;18.10;;;12.23;;
6566;SDS011;3317;43.994;22.878;2023-03-14T07:30:33;19.50;;;12.30;;
6566;SDS011;3317;43.994;22.878;2023-03-14T07:33:02;17.87;;;11.70;;
6566;SDS011;3317;43.994;22.878;2023-03-14T07:35:29;18.43;;;13.20;;
6566;SDS011;3317;43.994;22.878;2023-03-14T07:37:56;17.17;;;12.60;;
6566;SDS011;3317;43.994;22.878;2023-03-14T07:40:22;19.00;;;12.93;;
6566;SDS011;3317;43.994;22.878;2023-03-14T07:42:49;18.47;;;13.20;;
6566;SDS011;3317;43.994;22.878;2023-03-14T07:45:20;18.87;;;13.33;;
6566;SDS011;3317;43.994;22.878;2023-03-14T07:47:47;18.53;;;13.20;;
6566;SDS011;3317;43.994;22.878;2023-03-14T07:50:15;17.20;;;12.80;;
6566;SDS011;3317;43.994;22.878;2023-03-14T07:52:43;19.30;;;12.77;;
6566;SDS011;3317;43.994;22.878;2023-03-14T07:55:10;19.73;;;13.60;;
6566;SDS011;3317;43.994;22.878;2023-03-14T07:57:38;19.03;;;13.10;;
6566;SDS011;3317;43.994;22.878;2023-03-14T08:00:07;23.93;;;13.10;;
6566;SDS011;3317;43.994;22.878;2023-03-14T08:02:35;20.77;;;12.53;;
6566;SDS011;3317;43.994;22.878;2023-03-14T08:05:02;17.10;;;12.10;;
6566;SDS011;3317;43.994;22.878;2023-03-14T08:07:30;19.90;;;14.00;;
6566;SDS011;3317;43.994;22.878;2023-03-14T08:09:58;20.20;;;14.50;;
6566;SDS011;3317;43.994;22.878;2023-03-14T08:12:25;21.17;;;14.50;;
6566;SDS011;3317;43.994;22.878;2023-03-14T08:14:52;23.00;;;15.83;;
6566;SDS011;3317;43.994;22.878;2023-03-14T08:17:18;25.13;;;14.93;;
6566;SDS011;3317;43.994;22.878;2023-03-14T08:19:45;21.57;;;15.17;;
6566;SDS011;3317;43.994;22.878;2023-03-14T08:22:12;24.80;;;16.20;;
6566;SDS011;3317;43.994;22.878;2023-03-14T08:24:42;22.23;;;15.67;;
6566;SDS011;3317;43.994;22.878;2023-03-14T08:27:09;23.63;;;16.27;;
6566;SDS011;3317;43.994;22.878;2023-03-14T08:29:36;26.67;;;16.70;;
6566;SDS011;3317;43.994;22.878;2023-03-14T08:32:06;29.87;;;19.00;;
6566;SDS011;3317;43.994;22.878;2023-03-14T08:34:33;22.70;;;15.57;;
6566;SDS011;3317;43.994;22.878;2023-03-14T08:37:00;26.30;;;15.23;;
6566;SDS011;3317;43.994;22.878;2023-03-14T08:39:27;26.13;;;18.10;;
6566;SDS011;3317;43.994;22.878;2023-03-14T08:41:55;24.97;;;16.90;;
6566;SDS011;3317;43.994;22.878;2023-03-14T08:44:23;28.13;;;17.13;;
6566;SDS011;3317;43.994;22.878;2023-03-14T08:46:50;29.40;;;18.00;;
6566;SDS011;3317;43.994;22.878;2023-03-14T08:49:17;24.50;;;16.30;;
6566;SDS011;3317;43.994;22.878;2023-03-14T08:51:44;24.30;;;15.87;;
6566;SDS011;3317;43.994;22.878;2023-03-14T08:54:11;20.70;;;14.53;;
6566;SDS011;3317;43.994;22.878;2023-03-14T08:56:38;28.70;;;16.47;;
6566;SDS011;3317;43.994;22.878;2023-03-14T08:59:09;27.80;;;16.47;;
6566;SDS011;3317;43.994;22.878;2023-03-14T09:01:36;21.30;;;15.60;;
6566;SDS011;3317;43.994;22.878;2023-03-14T09:04:03;20.07;;;14.67;;
6566;SDS011;3317;43.994;22.878;2023-03-14T09:06:31;23.53;;;14.50;;
6566;SDS011;3317;43.994;22.878;2023-03-14T09:08:59;17.80;;;13.40;;
6566;SDS011;3317;43.994;22.878;2023-03-14T09:11:26;19.90;;;12.63;;
6566;SDS011;3317;43.994;22.878;2023-03-14T09:13:53;18.10;;;12.83;;
6566;SDS011;3317;43.994;22.878;2023-03-14T09:16:21;17.30;;;12.60;;
6566;SDS011;3317;43.994;22.878;2023-03-14T09:18:48;18.87;;;13.00;;
6566;SDS011;3317;43.994;22.878;2023-03-14T09:21:18;19.87;;;14.30;;
6566;SDS011;3317;43.994;22.878;2023-03-14T09:23:45;17.43;;;13.10;;
6566;SDS011;3317;43.994;22.878;2023-03-14T09:26:13;19.17;;;12.83;;
6566;SDS011;3317;43.994;22.878;2023-03-14T09:28:39;16.33;;;11.80;;
6566;SDS011;3317;43.994;22.878;2023-03-14T09:31:09;20.63;;;12.90;;
6566;SDS011;3317;43.994;22.878;2023-03-14T09:33:38;19.87;;;13.87;;
6566;SDS011;3317;43.994;22.878;2023-03-14T09:36:05;22.37;;;15.03;;
6566;SDS011;3317;43.994;22.878;2023-03-14T09:38:33;20.40;;;13.73;;
6566;SDS011;3317;43.994;22.878;2023-03-14T09:41:01;18.90;;;13.47;;
6566;SDS011;3317;43.994;22.878;2023-03-14T09:43:37;23.07;;;14.50;;
6566;SDS011;3317;43.994;22.878;2023-03-14T09:46:05;19.37;;;14.10;;
6566;SDS011;3317;43.994;22.878;2023-03-14T09:48:35;18.80;;;13.40;;
6566;SDS011;3317;43.994;22.878;2023-03-14T09:51:04;19.80;;;13.90;;
6566;SDS011;3317;43.994;22.878;2023-03-14T09:53:39;19.77;;;13.60;;
6566;SDS011;3317;43.994;22.878;2023-03-14T09:56:09;16.57;;;11.67;;
6566;SDS011;3317;43.994;22.878;2023-03-14T09:58:41;18.50;;;13.53;;
6566;SDS011;3317;43.994;22.878;2023-03-14T10:01:13;18.90;;;12.77;;
6566;SDS011;3317;43.994;22.878;2023-03-14T10:03:44;19.27;;;14.13;;
6566;SDS011;3317;43.994;22.878;2023-03-14T10:06:14;21.10;;;14.30;;
6566;SDS011;3317;43.994;22.878;2023-03-14T10:08:41;38.93;;;14.73;;
6566;SDS011;3317;43.994;22.878;2023-03-14T10:11:12;19.47;;;12.13;;
6566;SDS011;3317;43.994;22.878;2023-03-14T10:13:48;19.77;;;12.40;;
6566;SDS011;3317;43.994;22.878;2023-03-14T10:16:17;20.23;;;12.70;;
6566;SDS011;3317;43.994;22.878;2023-03-14T10:18:59;15.97;;;12.10;;
6566;SDS011;3317;43.994;22.878;2023-03-14T10:21:30;18.37;;;13.07;;
6566;SDS011;3317;43.994;22.878;2023-03-14T10:24:09;19.70;;;13.07;;
6566;SDS011;3317;43.994;22.878;2023-03-14T10:26:42;17.13;;;11.33;;
6566;SDS011;3317;43.994;22.878;2023-03-14T10:29:10;22.60;;;13.07;;
6566;SDS011;3317;43.994;22.878;2023-03-14T10:31:52;16.00;;;11.20;;
6566;SDS011;3317;43.994;22.878;2023-03-14T10:34:23;19.30;;;13.50;;
6566;SDS011;3317;43.994;22.878;2023-03-14T10:36:53;28.73;;;15.00;;
6566;SDS011;3317;43.994;22.878;2023-03-14T10:39:23;19.20;;;13.50;;
6566;SDS011;3317;43.994;22.878;2023-03-14T10:42:04;21.00;;;14.33;;
6566;SDS011;3317;43.994;22.878;2023-03-14T10:44:33;18.57;;;13.30;;
6566;SDS011;3317;43.994;22.878;2023-03-14T10:47:02;20.33;;;12.33;;
6566;SDS011;3317;43.994;22.878;2023-03-14T10:49:31;18.17;;;12.30;;
6566;SDS011;3317;43.994;22.878;2023-03-14T10:52:14;22.93;;;14.10;;
6566;SDS011;3317;43.994;22.878;2023-03-14T10:54:48;17.40;;;12.73;;
6566;SDS011;3317;43.994;22.878;2023-03-14T10:57:16;22.60;;;14.07;;
6566;SDS011;3317;43.994;22.878;2023-03-14T10:59:46;18.70;;;12.53;;
6566;SDS011;3317;43.994;22.878;2023-03-14T11:05:05;18.23;;;12.43;;
6566;SDS011;3317;43.994;22.878;2023-03-14T11:07:43;19.27;;;13.37;;
6566;SDS011;3317;43.994;22.878;2023-03-14T11:10:13;16.10;;;12.37;;
6566;SDS011;3317;43.994;22.878;2023-03-14T11:12:49;19.90;;;12.77;;
6566;SDS011;3317;43.994;22.878;2023-03-14T11:15:28;21.13;;;13.13;;
6566;SDS011;3317;43.994;22.878;2023-03-14T11:18:03;19.07;;;12.83;;
6566;SDS011;3317;43.994;22.878;2023-03-14T11:20:42;18.37;;;13.17;;
6566;SDS011;3317;43.994;22.878;2023-03-14T11:23:20;17.77;;;12.50;;
6566;SDS011;3317;43.994;22.878;2023-03-14T11:25:50;17.40;;;12.60;;
6566;SDS011;3317;43.994;22.878;2023-03-14T11:28:24;18.83;;;13.63;;
6566;SDS011;3317;43.994;22.878;2023-03-14T11:30:59;20.00;;;13.93;;
6566;SDS011;3317;43.994;22.878;2023-03-14T11:33:37;15.27;;;11.60;;
6566;SDS011;3317;43.994;22.878;2023-03-14T11:36:06;20.93;;;12.73;;
6566;SDS011;3317;43.994;22.878;2023-03-14T11:38:38;16.80;;;13.00;;
6566;SDS011;3317;43.994;22.878;2023-03-14T11:41:10;18.97;;;12.53;;
6566;SDS011;3317;43.994;22.878;2023-03-14T11:43:42;21.50;;;13.00;;
6566;SDS011;3317;43.994;22.878;2023-03-14T11:46:16;17.10;;;11.87;;
6566;SDS011;3317;43.994;22.878;2023-03-14T11:48:50;23.87;;;12.83;;
6566;SDS011;3317;43.994;22.878;2023-03-14T11:51:26;23.70;;;13.07;;
6566;SDS011;3317;43.994;22.878;2023-03-14T11:54:02;18.17;;;12.20;;
6566;SDS011;3317;43.994;22.878;2023-03-14T11:56:39;17.87;;;11.73;;
6566;SDS011;3317;43.994;22.878;2023-03-14T11:59:14;15.37;;;10.57;;
6566;SDS011;3317;43.994;22.878;2023-03-14T12:01:53;14.07;;;10.53;;
6566;SDS011;3317;43.994;22.878;2023-03-14T12:04:42;14.37;;;10.13;;
6566;SDS011;3317;43.994;22.878;2023-03-14T12:07:17;15.00;;;11.10;;
6566;SDS011;3317;43.994;22.878;2023-03-14T12:09:50;17.73;;;11.10;;
6566;SDS011;3317;43.994;22.878;2023-03-14T12:12:19;21.40;;;10.43;;
6566;SDS011;3317;43.994;22.878;2023-03-14T12:14:52;16.00;;;9.00;;
6566;SDS011;3317;43.994;22.878;2023-03-14T12:17:21;10.70;;;8.53;;
6566;SDS011;3317;43.994;22.878;2023-03-14T12:19:59;11.00;;;8.70;;
6566;SDS011;3317;43.994;22.878;2023-03-14T12:22:29;14.10;;;7.97;;
6566;SDS011;3317;43.994;22.878;2023-03-14T12:25:02;12.87;;;9.37;;
6566;SDS011;3317;43.994;22.878;2023-03-14T12:27:40;11.33;;;8.47;;
6566;SDS011;3317;43.994;22.878;2023-03-14T12:30:26;10.73;;;7.90;;
6566;SDS011;3317;43.994;22.878;2023-03-14T12:33:11;11.13;;;6.90;;
6566;SDS011;3317;43.994;22.878;2023-03-14T12:36:03;11.63;;;7.80;;
6566;SDS011;3317;43.994;22.878;2023-03-14T12:39:03;9.20;;;7.07;;
6566;SDS011;3317;43.994;22.878;2023-03-14T12:41:42;14.10;;;7.60;;
6566;SDS011;3317;43.994;22.878;2023-03-14T12:50:13;9.17;;;6.80;;
6566;SDS011;3317;43.994;22.878;2023-03-14T12:52:47;10.77;;;7.37;;
6566;SDS011;3317;43.994;22.878;2023-03-14T12:55:28;9.23;;;7.27;;
6566;SDS011;3317;43.994;22.878;2023-03-14T12:58:05;9.27;;;6.93;;
6566;SDS011;3317;43.994;22.878;2023-03-14T13:00:39;12.67;;;7.50;;
6566;SDS011;3317;43.994;22.878;2023-03-14T13:03:17;10.87;;;7.53;;
6566;SDS011;3317;43.994;22.878;2023-03-14T13:05:54;9.83;;;6.30;;
6566;SDS011;3317;43.994;22.878;2023-03-14T13:08:34;11.07;;;7.40;;
6566;SDS011;3317;43.994;22.878;2023-03-14T13:11:04;12.40;;;6.80;;
6566;SDS011;3317;43.994;22.878;2023-03-14T13:13:35;9.70;;;7.30;;
6566;SDS011;3317;43.994;22.878;2023-03-14T13:16:09;8.40;;;6.10;;
6566;SDS011;3317;43.994;22.878;2023-03-14T13:18:41;10.27;;;6.33;;
6566;SDS011;3317;43.994;22.878;2023-03-14T13:21:10;8.77;;;6.30;;
6566;SDS011;3317;43.994;22.878;2023-03-14T13:23:59;9.57;;;6.50;;
6566;SDS011;3317;43.994;22.878;2023-03-14T13:26:32;9.37;;;6.27;;
6566;SDS011;3317;43.994;22.878;2023-03-14T13:29:09;11.60;;;7.40;;
6566;SDS011;3317;43.994;22.878;2023-03-14T13:31:43;8.17;;;6.63;;
6566;SDS011;3317;43.994;22.878;2023-03-14T13:34:11;11.83;;;7.50;;
6566;SDS011;3317;43.994;22.878;2023-03-14T13:36:38;10.40;;;7.13;;
6566;SDS011;3317;43.994;22.878;2023-03-14T13:39:06;10.00;;;7.20;;
6566;SDS011;3317;43.994;22.878;2023-03-14T13:41:38;9.20;;;6.30;;
6566;SDS011;3317;43.994;22.878;2023-03-14T13:44:06;8.60;;;6.70;;
6566;SDS011;3317;43.994;22.878;2023-03-14T13:46:39;11.50;;;5.83;;
6566;SDS011;3317;43.994;22.878;2023-03-14T13:49:07;9.03;;;7.03;;
6566;SDS011;3317;43.994;22.878;2023-03-14T13:51:39;10.30;;;7.23;;
6566;SDS011;3317;43.994;22.878;2023-03-14T13:54:13;12.10;;;7.10;;
6566;SDS011;3317;43.994;22.878;2023-03-14T13:56:41;8.23;;;6.43;;
6566;SDS011;3317;43.994;22.878;2023-03-14T13:59:22;8.83;;;6.80;;
6566;SDS011;3317;43.994;22.878;2023-03-14T14:01:49;8.63;;;5.90;;
6566;SDS011;3317;43.994;22.878;2023-03-14T14:04:18;8.23;;;6.53;;
6566;SDS011;3317;43.994;22.878;2023-03-14T14:06:47;10.17;;;6.90;;
6566;SDS011;3317;43.994;22.878;2023-03-14T14:09:19;10.57;;;7.07;;
6566;SDS011;3317;43.994;22.878;2023-03-14T14:11:50;9.90;;;7.20;;
6566;SDS011;3317;43.994;22.878;2023-03-14T14:14:23;11.40;;;7.03;;
6566;SDS011;3317;43.994;22.878;2023-03-14T14:16:55;9.83;;;7.40;;
6566;SDS011;3317;43.994;22.878;2023-03-14T14:19:24;9.47;;;6.37;;
6566;SDS011;3317;43.994;22.878;2023-03-14T14:21:56;10.23;;;7.30;;
6566;SDS011;3317;43.994;22.878;2023-03-14T14:24:24;10.47;;;7.20;;
6566;SDS011;3317;43.994;22.878;2023-03-14T14:26:58;12.13;;;7.27;;
6566;SDS011;3317;43.994;22.878;2023-03-14T14:29:29;11.50;;;7.43;;
6566;SDS011;3317;43.994;22.878;2023-03-14T14:32:01;11.37;;;6.80;;
6566;SDS011;3317;43.994;22.878;2023-03-14T14:34:39;14.80;;;7.37;;
6566;SDS011;3317;43.994;22.878;2023-03-14T14:37:16;11.57;;;7.60;;
6566;SDS011;3317;43.994;22.878;2023-03-14T14:39:45;9.70;;;6.93;;
6566;SDS011;3317;43.994;22.878;2023-03-14T14:42:13;10.23;;;7.60;;
6566;SDS011;3317;43.994;22.878;2023-03-14T14:44:43;15.27;;;7.63;;
6566;SDS011;3317;43.994;22.878;2023-03-14T14:47:12;12.77;;;8.27;;
6566;SDS011;3317;43.994;22.878;2023-03-14T14:49:40;8.10;;;6.30;;
6566;SDS011;3317;43.994;22.878;2023-03-14T14:52:10;9.90;;;6.40;;
6566;SDS011;3317;43.994;22.878;2023-03-14T14:54:42;12.87;;;6.97;;
6566;SDS011;3317;43.994;22.878;2023-03-14T14:57:17;16.50;;;7.30;;
6566;SDS011;3317;43.994;22.878;2023-03-14T14:59:47;9.27;;;6.73;;
6566;SDS011;3317;43.994;22.878;2023-03-14T15:02:28;13.87;;;6.90;;
6566;SDS011;3317;43.994;22.878;2023-03-14T15:04:57;11.70;;;6.00;;
6566;SDS011;3317;43.994;22.878;2023-03-14T15:07:24;9.13;;;6.17;;
6566;SDS011;3317;43.994;22.878;2023-03-14T15:09:51;9.10;;;6.23;;